Fuji Maru — JD2030 — position and weather

sailwx.info

Track history (hours):
 
Tides and Currents Weather Stations Pressure Air Temp Water Temp Dewpoint Dewpoint Depression Visibility Wind Speed Wind Dir Waves Ship Positions

Fuji Maru

Last reported at 2015-Jan-29 13:33 UTC. Time now 2015-Jan-29 18:29 UTC.
Position N 35°34' E 139°49'.

Length 38 m; draft 4.4 m.

Type: Tug. MMSI: 431001102.

Date/timePositionNaut miles runAvg speedWind from/ knotsBaromVisibWave heightAir tempDewpointWater temp
2015-Jan-29 13:33N 35°34' E 139°49'5 1.6
2015-Jan-29 10:26N 35°38' E 139°46'0 0.0
2015-Jan-29 09:17N 35°38' E 139°46'1 0.0
2015-Jan-28 10:30N 35°39' E 139°46'4 3.8
2015-Jan-28 09:26N 35°35' E 139°48'0 0.2
2015-Jan-28 08:32N 35°35' E 139°47'4 2.8
2015-Jan-28 07:17N 35°38' E 139°46'0 0.0
2015-Jan-27 05:14N 35°38' E 139°46'0 0.6
2015-Jan-27 04:31N 35°38' E 139°46'4 4.1
2015-Jan-27 03:32N 35°35' E 139°48'5 0.2
2015-Jan-25 23:13N 35°39' E 139°46'2 3.3
2015-Jan-25 22:31N 35°37' E 139°47'5 4.6
2015-Jan-25 21:26N 35°34' E 139°52'5 4.0
2015-Jan-25 20:18N 35°36' E 139°47'2 2.9
2015-Jan-25 19:32N 35°38' E 139°46'1 0.0
2015-Jan-24 05:28N 35°37' E 139°46'2 2.6
2015-Jan-24 04:33N 35°35' E 139°48'3 0.2
2015-Jan-23 12:33N 35°37' E 139°46'4 3.7
2015-Jan-23 11:32N 35°34' E 139°49'3 1.9
2015-Jan-23 10:03N 35°37' E 139°48'2 1.4
2015-Jan-23 08:19N 35°38' E 139°46'3 0.3
2015-Jan-22 22:09N 35°36' E 139°47'1 2.2
2015-Jan-22 21:33N 35°35' E 139°48'4 3.6
2015-Jan-22 20:33N 35°38' E 139°46'1 0.3
2015-Jan-22 17:29N 35°39' E 139°46'0 0.0
2015-Jan-21 23:13N 35°39' E 139°46'3 4.9
2015-Jan-21 22:40N 35°36' E 139°47'0 3.8
2015-Jan-21 22:33N 35°36' E 139°47'2 2.2
2015-Jan-21 21:33N 35°34' E 139°49'4 3.8
2015-Jan-21 20:32N 35°37' E 139°46'2 0.1
2015-Jan-21 00:28N 35°39' E 139°46'4 4.2
2015-Jan-20 23:30N 35°35' E 139°48'4 0.3
2015-Jan-20 11:05N 35°39' E 139°46'3 3.1
2015-Jan-20 10:09N 35°36' E 139°46'3 5.1
2015-Jan-20 09:33N 35°34' E 139°49'3 3.1
2015-Jan-20 08:30N 35°37' E 139°50'1 0.9
2015-Jan-20 07:25N 35°37' E 139°49'  
Track history (hours):
 
Tides and Currents Weather Stations Pressure Air Temp Water Temp Dewpoint Dewpoint Depression Visibility Wind Speed Wind Dir Waves Ship Positions

Fuji Maru

Last reported at 2015-Jan-29 13:33 UTC. Time now 2015-Jan-29 18:29 UTC.
Position N 35°34' E 139°49'.

Length 38 m; draft 4.4 m.

Type: Tug. MMSI: 431001102.

Date/timePositionNaut miles runAvg speedWind from/ knotsBaromVisibWave heightAir tempDewpointWater temp
2015-Jan-29 13:33N 35°34' E 139°49'5 1.6
2015-Jan-29 10:26N 35°38' E 139°46'0 0.0
2015-Jan-29 09:17N 35°38' E 139°46'1 0.0
2015-Jan-28 10:30N 35°39' E 139°46'4 3.8
2015-Jan-28 09:26N 35°35' E 139°48'0 0.2
2015-Jan-28 08:32N 35°35' E 139°47'4 2.8
2015-Jan-28 07:17N 35°38' E 139°46'0 0.0
2015-Jan-27 05:14N 35°38' E 139°46'0 0.6
2015-Jan-27 04:31N 35°38' E 139°46'4 4.1
2015-Jan-27 03:32N 35°35' E 139°48'5 0.2
2015-Jan-25 23:13N 35°39' E 139°46'2 3.3
2015-Jan-25 22:31N 35°37' E 139°47'5 4.6
2015-Jan-25 21:26N 35°34' E 139°52'5 4.0
2015-Jan-25 20:18N 35°36' E 139°47'2 2.9
2015-Jan-25 19:32N 35°38' E 139°46'1 0.0
2015-Jan-24 05:28N 35°37' E 139°46'2 2.6
2015-Jan-24 04:33N 35°35' E 139°48'3 0.2
2015-Jan-23 12:33N 35°37' E 139°46'4 3.7
2015-Jan-23 11:32N 35°34' E 139°49'3 1.9
2015-Jan-23 10:03N 35°37' E 139°48'2 1.4
2015-Jan-23 08:19N 35°38' E 139°46'3 0.3
2015-Jan-22 22:09N 35°36' E 139°47'1 2.2
2015-Jan-22 21:33N 35°35' E 139°48'4 3.6
2015-Jan-22 20:33N 35°38' E 139°46'1 0.3
2015-Jan-22 17:29N 35°39' E 139°46'0 0.0
2015-Jan-21 23:13N 35°39' E 139°46'3 4.9
2015-Jan-21 22:40N 35°36' E 139°47'0 3.8
2015-Jan-21 22:33N 35°36' E 139°47'2 2.2
2015-Jan-21 21:33N 35°34' E 139°49'4 3.8
2015-Jan-21 20:32N 35°37' E 139°46'2 0.1
2015-Jan-21 00:28N 35°39' E 139°46'4 4.2
2015-Jan-20 23:30N 35°35' E 139°48'4 0.3
2015-Jan-20 11:05N 35°39' E 139°46'3 3.1
2015-Jan-20 10:09N 35°36' E 139°46'3 5.1
2015-Jan-20 09:33N 35°34' E 139°49'3 3.1
2015-Jan-20 08:30N 35°37' E 139°50'1 0.9
2015-Jan-20 07:25N 35°37' E 139°49'  

Dump ship's entire track history